createdAt,value
2023-08-15T00:00:50.351Z,78.30
2023-08-15T00:03:17.090Z,78.76
2023-08-15T00:05:43.660Z,78.04
2023-08-15T00:08:10.162Z,78.15
2023-08-15T00:10:36.547Z,78.82
2023-08-15T00:13:04.225Z,79.06
2023-08-15T00:15:31.111Z,77.82
2023-08-15T00:17:57.566Z,79.03
2023-08-15T00:20:24.028Z,78.40
2023-08-15T00:22:50.413Z,77.80
2023-08-15T00:25:16.874Z,77.58
2023-08-15T00:27:43.296Z,76.94
2023-08-15T00:30:09.726Z,77.09
2023-08-15T00:32:37.263Z,76.91
2023-08-15T00:35:05.013Z,78.25
2023-08-15T00:37:35.708Z,77.60
2023-08-15T00:40:02.165Z,76.58
2023-08-15T00:42:28.543Z,76.98
2023-08-15T00:44:54.913Z,77.42
2023-08-15T00:47:21.495Z,78.04
2023-08-15T00:49:48.278Z,79.84
2023-08-15T00:52:15.083Z,78.76
2023-08-15T00:54:47.064Z,78.88
2023-08-15T00:57:13.433Z,77.56
2023-08-15T00:59:41.762Z,78.38
2023-08-15T01:02:08.215Z,79.45
2023-08-15T01:04:34.595Z,79.46
2023-08-15T01:07:01.003Z,79.03
2023-08-15T01:09:27.464Z,78.56
2023-08-15T01:11:56.808Z,80.06
2023-08-15T01:14:23.549Z,79.52
2023-08-15T01:16:50.111Z,79.56
2023-08-15T01:19:25.129Z,79.55
2023-08-15T01:21:51.529Z,79.46
2023-08-15T01:24:17.879Z,80.34
2023-08-15T01:26:44.218Z,78.99
2023-08-15T01:29:10.669Z,79.57
2023-08-15T01:31:38.022Z,79.24
2023-08-15T01:34:17.071Z,80.06
2023-08-15T01:36:47.604Z,80.66
2023-08-15T01:39:14.352Z,79.43
2023-08-15T01:41:41.191Z,79.57
2023-08-15T01:44:07.740Z,80.63
2023-08-15T01:46:34.099Z,80.46
2023-08-15T01:49:00.889Z,80.58
2023-08-15T01:51:27.451Z,80.30
2023-08-15T01:53:53.986Z,79.87
2023-08-15T01:56:20.401Z,80.30
2023-08-15T01:58:46.805Z,80.71
2023-08-15T02:01:15.191Z,80.02
2023-08-15T02:03:41.660Z,79.02
2023-08-15T02:06:08.022Z,79.33
2023-08-15T02:08:34.435Z,80.17
2023-08-15T02:11:00.884Z,80.30
2023-08-15T02:13:31.748Z,80.92
2023-08-15T02:15:59.335Z,80.97
2023-08-15T02:18:31.972Z,80.39
2023-08-15T02:20:58.371Z,80.82
2023-08-15T02:23:24.820Z,79.93
2023-08-15T02:25:51.355Z,79.73
2023-08-15T02:28:17.801Z,79.48
2023-08-15T02:30:44.274Z,79.82
2023-08-15T02:33:10.703Z,79.14
2023-08-15T02:35:42.957Z,79.13
2023-08-15T02:38:09.457Z,79.20
2023-08-15T02:40:35.944Z,79.08
2023-08-15T02:43:02.377Z,78.43
2023-08-15T02:45:28.744Z,78.09
2023-08-15T02:47:55.187Z,78.26
2023-08-15T02:50:21.944Z,77.52
2023-08-15T02:52:48.310Z,77.96
2023-08-15T02:55:14.768Z,77.14
2023-08-15T02:57:41.133Z,77.09
2023-08-15T03:00:09.016Z,77.74
2023-08-15T03:02:35.547Z,77.02
2023-08-15T03:05:02.041Z,77.72
2023-08-15T03:07:28.418Z,78.32
2023-08-15T03:09:54.855Z,78.04
2023-08-15T03:12:21.267Z,77.92
2023-08-15T03:14:47.673Z,78.98
2023-08-15T03:17:15.049Z,78.75
2023-08-15T03:19:41.513Z,78.97
2023-08-15T03:22:08.001Z,79.14
2023-08-15T03:24:34.418Z,79.78
2023-08-15T03:27:03.089Z,78.86
2023-08-15T03:29:30.788Z,78.70
2023-08-15T03:31:59.091Z,79.04
2023-08-15T03:34:25.480Z,77.98
2023-08-15T03:36:51.843Z,77.73
2023-08-15T03:39:18.341Z,78.46
2023-08-15T03:41:44.937Z,78.94
2023-08-15T03:44:11.358Z,78.79
2023-08-15T03:46:37.781Z,77.89
2023-08-15T03:49:05.010Z,78.25
2023-08-15T03:51:45.780Z,78.13
2023-08-15T03:54:13.199Z,78.54
2023-08-15T03:56:39.576Z,78.17
2023-08-15T03:59:05.963Z,77.59
2023-08-15T04:01:33.027Z,77.69
2023-08-15T04:03:59.447Z,78.42
2023-08-15T04:06:25.946Z,80.06
2023-08-15T04:08:52.360Z,78.80
2023-08-15T04:11:18.785Z,77.57
2023-08-15T04:13:45.163Z,79.46
2023-08-15T04:16:11.630Z,79.71
2023-08-15T04:18:38.085Z,80.04
2023-08-15T04:21:04.535Z,78.46
2023-08-15T04:23:31.040Z,78.72
2023-08-15T04:25:57.394Z,78.29
2023-08-15T04:28:23.815Z,80.29
2023-08-15T04:30:50.234Z,79.85
2023-08-15T04:33:16.649Z,79.28
2023-08-15T04:35:43.099Z,80.75
2023-08-15T04:38:10.005Z,81.54
2023-08-15T04:40:41.084Z,80.71
2023-08-15T04:43:07.980Z,80.99
2023-08-15T04:45:34.659Z,80.11
2023-08-15T04:48:01.291Z,79.83
2023-08-15T04:50:27.708Z,80.04
2023-08-15T04:52:54.305Z,78.15
2023-08-15T04:55:20.802Z,79.19
2023-08-15T04:57:47.185Z,78.23
2023-08-15T05:00:14.047Z,80.15
2023-08-15T05:02:40.475Z,79.80
2023-08-15T05:05:07.506Z,80.64
2023-08-15T05:07:34.134Z,79.85
2023-08-15T05:10:05.841Z,79.16
2023-08-15T05:12:32.409Z,79.92
2023-08-15T05:14:58.945Z,78.53
2023-08-15T05:17:25.349Z,78.37
2023-08-15T05:19:53.044Z,79.33
2023-08-15T05:22:24.101Z,78.74
2023-08-15T05:24:59.887Z,74.44
2023-08-15T05:27:26.521Z,73.27
2023-08-15T05:29:53.761Z,72.57
2023-08-15T05:32:20.186Z,74.09
2023-08-15T05:34:47.183Z,73.51
2023-08-15T05:37:13.634Z,72.52
2023-08-15T05:40:00.663Z,70.99
2023-08-15T05:42:29.019Z,70.98
2023-08-15T05:44:55.533Z,71.34
2023-08-15T05:47:22.357Z,70.67
2023-08-15T05:49:56.081Z,69.91
2023-08-15T05:52:22.696Z,69.56
2023-08-15T05:54:49.251Z,68.50
2023-08-15T05:57:15.712Z,66.70
2023-08-15T05:59:42.223Z,66.92
2023-08-15T06:02:08.623Z,67.02
2023-08-15T06:04:35.199Z,67.06
2023-08-15T06:07:01.765Z,67.91
2023-08-15T06:09:28.411Z,67.79
2023-08-15T06:11:54.849Z,66.62
2023-08-15T06:14:21.463Z,66.40
2023-08-15T06:16:48.316Z,63.87
2023-08-15T06:19:14.961Z,63.73
2023-08-15T06:21:42.814Z,63.15
2023-08-15T06:24:12.768Z,64.59
2023-08-15T06:26:39.363Z,65.29
2023-08-15T06:29:06.235Z,66.99
2023-08-15T06:31:39.975Z,67.64
2023-08-15T06:34:07.180Z,68.12
2023-08-15T06:36:33.750Z,65.95
2023-08-15T06:39:00.305Z,65.87
2023-08-15T06:41:26.690Z,63.66
2023-08-15T06:43:53.118Z,63.20
2023-08-15T06:46:19.867Z,63.88
2023-08-15T06:48:46.290Z,65.18
2023-08-15T06:51:13.049Z,64.07
2023-08-15T06:53:42.685Z,64.54
2023-08-15T06:56:11.032Z,62.03
2023-08-15T06:58:45.089Z,60.62
2023-08-15T07:01:14.412Z,60.92
2023-08-15T07:03:42.271Z,60.58
2023-08-15T07:06:08.759Z,60.91
2023-08-15T07:08:35.173Z,60.75
2023-08-15T07:11:03.189Z,61.76
2023-08-15T07:13:30.507Z,62.27
2023-08-15T07:15:57.130Z,62.45
2023-08-15T07:18:24.723Z,63.08
2023-08-15T07:20:51.918Z,63.06
2023-08-15T07:23:19.780Z,62.78
2023-08-15T07:25:46.798Z,62.88
2023-08-15T07:28:13.613Z,62.02
2023-08-15T07:30:40.066Z,60.29
2023-08-15T07:33:06.782Z,61.21
2023-08-15T07:35:33.593Z,60.13
2023-08-15T07:38:01.617Z,59.95
2023-08-15T07:40:28.360Z,58.07
2023-08-15T07:42:55.541Z,59.12
2023-08-15T07:45:22.922Z,57.98
2023-08-15T07:47:52.912Z,57.97
2023-08-15T07:50:20.342Z,56.96
2023-08-15T07:52:46.825Z,58.92
2023-08-15T07:55:13.273Z,56.83
2023-08-15T07:57:39.685Z,55.08
2023-08-15T08:00:07.876Z,55.16
2023-08-15T08:02:34.649Z,56.05
2023-08-15T08:05:01.211Z,57.22
2023-08-15T08:07:27.982Z,57.08
2023-08-15T08:09:55.028Z,57.44
2023-08-15T08:12:21.635Z,56.91
2023-08-15T08:15:09.248Z,57.12
2023-08-15T08:17:36.804Z,57.18
2023-08-15T08:20:07.967Z,56.86
2023-08-15T08:22:34.375Z,57.59
2023-08-15T08:25:22.780Z,56.77
2023-08-15T08:27:49.928Z,55.73
2023-08-15T08:30:23.619Z,56.30
2023-08-15T08:32:53.907Z,56.58
2023-08-15T08:35:21.329Z,57.24
2023-08-15T08:37:50.827Z,58.17
2023-08-15T08:40:18.384Z,56.70
2023-08-15T08:46:03.320Z,55.35
2023-08-15T08:48:29.762Z,54.10
2023-08-15T08:50:56.490Z,54.89
2023-08-15T08:53:22.857Z,54.75
2023-08-15T08:55:49.441Z,53.59
2023-08-15T08:58:15.995Z,54.06
2023-08-15T09:00:42.518Z,53.39
2023-08-15T09:03:09.416Z,53.78
2023-08-15T09:05:35.846Z,53.65
2023-08-15T09:08:02.346Z,54.04
2023-08-15T09:10:29.900Z,52.71
2023-08-15T09:13:00.643Z,53.13
2023-08-15T09:15:27.486Z,52.67
2023-08-15T09:18:01.428Z,49.46
2023-08-15T09:20:28.589Z,49.14
2023-08-15T09:22:58.915Z,47.72
2023-08-15T09:25:26.859Z,48.54
2023-08-15T09:27:54.874Z,47.11
2023-08-15T09:30:22.753Z,45.78
2023-08-15T09:32:49.698Z,44.51
2023-08-15T09:35:16.749Z,43.32
2023-08-15T09:37:49.985Z,42.88
2023-08-15T09:40:25.736Z,39.72
2023-08-15T09:42:52.336Z,40.87
2023-08-15T09:45:20.309Z,40.47
2023-08-15T09:47:46.982Z,40.42
2023-08-15T09:50:14.010Z,40.78
2023-08-15T09:52:44.124Z,39.40
2023-08-15T09:55:14.487Z,39.86
2023-08-15T09:57:41.963Z,37.47
2023-08-15T10:00:17.294Z,32.92
2023-08-15T10:02:47.325Z,32.72
2023-08-15T10:05:14.216Z,30.96
2023-08-15T10:07:41.563Z,31.48
2023-08-15T10:10:09.107Z,30.97
2023-08-15T10:12:35.679Z,30.85
2023-08-15T10:15:02.104Z,31.40
2023-08-15T10:17:29.389Z,31.09
2023-08-15T10:20:04.456Z,31.43
2023-08-15T10:22:33.874Z,31.80
2023-08-15T10:25:19.197Z,31.93
2023-08-15T10:27:47.048Z,30.81
2023-08-15T10:30:14.667Z,30.46
2023-08-15T10:32:41.231Z,30.60
2023-08-15T10:35:07.647Z,31.04
2023-08-15T10:37:35.048Z,29.96
2023-08-15T10:40:14.025Z,30.84
2023-08-15T10:42:58.707Z,31.04
2023-08-15T10:45:25.134Z,30.31
2023-08-15T10:47:51.551Z,29.19
2023-08-15T10:50:18.007Z,29.50
2023-08-15T10:52:44.428Z,28.25
2023-08-15T10:55:10.777Z,28.93
2023-08-15T10:57:37.126Z,28.77
2023-08-15T11:00:06.034Z,28.34
2023-08-15T11:02:32.535Z,29.18
2023-08-15T11:04:58.965Z,29.14
2023-08-15T11:07:26.247Z,28.12
2023-08-15T11:09:52.637Z,29.53
2023-08-15T11:12:19.234Z,28.92
2023-08-15T11:14:50.322Z,29.56
2023-08-15T11:17:16.710Z,30.34
2023-08-15T11:19:43.077Z,30.05
2023-08-15T11:22:09.470Z,29.09
2023-08-15T11:24:35.856Z,29.67
2023-08-15T11:27:03.363Z,28.89
2023-08-15T11:29:29.785Z,29.85
2023-08-15T11:32:00.113Z,29.15
2023-08-15T11:34:26.564Z,29.83
2023-08-15T11:36:52.961Z,29.57
2023-08-15T11:39:19.544Z,29.22
2023-08-15T11:41:46.169Z,29.30
2023-08-15T11:44:12.574Z,29.29
2023-08-15T11:46:53.008Z,29.35
2023-08-15T11:49:21.777Z,29.42
2023-08-15T11:51:48.243Z,29.09
2023-08-15T11:54:14.634Z,29.17
2023-08-15T11:56:47.864Z,29.52
2023-08-15T11:59:16.584Z,29.10
2023-08-15T12:01:43.371Z,29.63
2023-08-15T12:04:12.326Z,30.29
2023-08-15T12:06:40.137Z,30.51
2023-08-15T12:09:07.253Z,29.59
2023-08-15T12:11:36.590Z,29.97
2023-08-15T12:14:05.938Z,30.38
2023-08-15T12:16:32.312Z,29.67
2023-08-15T12:18:58.779Z,29.34
2023-08-15T12:21:25.361Z,29.85
2023-08-15T12:23:51.786Z,29.50
2023-08-15T12:26:18.220Z,29.44
2023-08-15T12:28:44.624Z,29.27
2023-08-15T12:31:11.054Z,29.38
2023-08-15T12:36:07.900Z,29.20
2023-08-15T12:38:34.266Z,28.71
2023-08-15T12:41:00.671Z,29.40
2023-08-15T12:43:27.119Z,29.75
2023-08-15T12:45:53.542Z,28.92
2023-08-15T12:48:20.071Z,29.33
2023-08-15T12:50:46.489Z,29.44
2023-08-15T12:53:13.938Z,29.64
2023-08-15T12:55:40.448Z,29.68
2023-08-15T12:58:08.732Z,30.14
2023-08-15T13:00:35.176Z,28.54
2023-08-15T13:03:20.018Z,28.09
2023-08-15T13:05:47.703Z,29.00
2023-08-15T13:08:17.181Z,29.19
2023-08-15T13:10:44.655Z,29.66
2023-08-15T13:13:12.030Z,29.63
2023-08-15T13:15:39.177Z,29.46
2023-08-15T13:18:11.872Z,29.90
2023-08-15T13:20:40.107Z,29.70
2023-08-15T13:23:12.062Z,29.86
2023-08-15T13:25:40.675Z,30.22
2023-08-15T13:28:07.566Z,30.39
2023-08-15T13:30:34.148Z,30.94
2023-08-15T13:33:02.278Z,30.23
2023-08-15T13:35:28.856Z,30.19
2023-08-15T13:37:55.496Z,29.98
2023-08-15T13:40:22.130Z,30.77
2023-08-15T13:42:49.037Z,30.88
2023-08-15T13:45:16.020Z,30.96
2023-08-15T13:47:42.542Z,30.93
2023-08-15T13:50:09.966Z,31.19
2023-08-15T13:52:38.412Z,30.60
2023-08-15T13:55:06.242Z,31.11
2023-08-15T13:57:33.868Z,30.90
2023-08-15T14:00:01.111Z,31.45
2023-08-15T14:02:42.540Z,31.17
2023-08-15T14:05:09.455Z,31.37
2023-08-15T14:07:36.318Z,31.59
2023-08-15T14:10:04.398Z,31.75
2023-08-15T14:12:34.395Z,31.19
2023-08-15T14:15:03.767Z,31.48
2023-08-15T14:17:40.784Z,31.58
2023-08-15T14:23:05.592Z,32.24
2023-08-15T14:25:33.154Z,31.89
2023-08-15T14:28:00.056Z,31.57
2023-08-15T14:30:27.318Z,32.38
2023-08-15T14:32:54.169Z,31.61
2023-08-15T14:35:20.681Z,32.20
2023-08-15T14:37:47.203Z,31.98
2023-08-15T14:40:13.761Z,32.47
2023-08-15T14:42:40.200Z,32.92
2023-08-15T14:45:06.835Z,32.73
2023-08-15T14:47:33.842Z,33.20
2023-08-15T14:50:00.760Z,32.00
2023-08-15T14:52:28.346Z,32.16
2023-08-15T14:54:55.153Z,33.17
2023-08-15T14:57:21.530Z,32.00
2023-08-15T14:59:47.929Z,32.22
2023-08-15T15:02:15.128Z,32.49
2023-08-15T15:04:41.541Z,33.71
2023-08-15T15:07:10.182Z,34.50
2023-08-15T15:09:37.482Z,34.53
2023-08-15T15:12:04.536Z,35.31
2023-08-15T15:14:31.044Z,34.55
2023-08-15T15:16:57.481Z,34.15
2023-08-15T15:19:23.872Z,34.61
2023-08-15T15:21:53.456Z,34.26
2023-08-15T15:24:20.200Z,34.25
2023-08-15T15:26:46.643Z,34.69
2023-08-15T15:29:13.087Z,33.76
2023-08-15T15:31:39.577Z,34.26
2023-08-15T15:34:05.969Z,34.25
2023-08-15T15:36:32.339Z,35.32
2023-08-15T15:38:58.782Z,35.87
2023-08-15T15:41:25.236Z,35.74
2023-08-15T15:43:52.178Z,35.30
2023-08-15T15:46:18.737Z,35.73
2023-08-15T15:48:45.183Z,35.10
2023-08-15T15:51:11.590Z,36.23
2023-08-15T15:53:38.037Z,35.62
2023-08-15T15:56:04.695Z,35.95
2023-08-15T15:58:31.087Z,35.48
2023-08-15T16:00:58.470Z,35.78
2023-08-15T16:03:24.869Z,36.25
2023-08-15T16:05:51.392Z,36.40
2023-08-15T16:08:17.776Z,36.33
2023-08-15T16:10:44.168Z,36.22
2023-08-15T16:13:10.539Z,37.09
2023-08-15T16:15:36.995Z,36.82
2023-08-15T16:18:03.486Z,36.22
2023-08-15T16:20:29.906Z,36.54
2023-08-15T16:22:56.383Z,38.22
2023-08-15T16:25:22.915Z,40.13
2023-08-15T16:27:49.306Z,42.00
2023-08-15T16:30:18.580Z,43.28
2023-08-15T16:32:46.689Z,44.28
2023-08-15T16:35:13.310Z,44.97
2023-08-15T16:37:39.749Z,44.84
2023-08-15T16:40:06.391Z,45.78
2023-08-15T16:42:32.778Z,46.59
2023-08-15T16:44:59.198Z,46.86
2023-08-15T16:47:25.641Z,47.49
2023-08-15T16:49:52.025Z,48.04
2023-08-15T16:52:18.461Z,49.17
2023-08-15T16:54:44.825Z,49.05
2023-08-15T16:57:11.179Z,49.95
2023-08-15T16:59:37.860Z,50.31
2023-08-15T17:02:04.249Z,51.04
2023-08-15T17:04:30.686Z,51.11
2023-08-15T17:06:57.204Z,51.19
2023-08-15T17:09:23.823Z,51.30
2023-08-15T17:11:50.199Z,51.30
2023-08-15T17:14:16.739Z,51.43
2023-08-15T17:16:43.524Z,52.04
2023-08-15T17:19:10.301Z,51.45
2023-08-15T17:21:36.811Z,51.94
2023-08-15T17:24:04.488Z,51.37
2023-08-15T17:26:30.894Z,51.81
2023-08-15T17:28:57.300Z,51.78
2023-08-15T17:31:23.704Z,52.12
2023-08-15T17:33:50.112Z,52.23
2023-08-15T17:36:16.925Z,52.67
2023-08-15T17:38:43.277Z,53.19
2023-08-15T17:41:09.769Z,53.29
2023-08-15T17:43:37.320Z,53.15
2023-08-15T17:46:03.719Z,54.33
2023-08-15T17:48:30.202Z,54.10
2023-08-15T17:50:56.578Z,53.88
2023-08-15T17:53:28.656Z,54.30
2023-08-15T17:55:56.043Z,53.40
2023-08-15T17:58:22.548Z,55.16
2023-08-15T18:00:48.957Z,55.30
2023-08-15T18:03:15.520Z,55.23
2023-08-15T18:05:42.049Z,55.19
2023-08-15T18:08:08.434Z,55.35
2023-08-15T18:10:34.830Z,54.92
2023-08-15T18:13:01.248Z,54.77
2023-08-15T18:15:27.620Z,55.07
2023-08-15T18:17:57.091Z,56.10
2023-08-15T18:20:24.299Z,56.13
2023-08-15T18:22:50.722Z,55.46
2023-08-15T18:25:17.164Z,56.89
2023-08-15T18:27:43.804Z,58.07
2023-08-15T18:30:12.998Z,57.48
2023-08-15T18:32:40.422Z,57.98
2023-08-15T18:35:08.413Z,58.35
2023-08-15T18:37:34.871Z,57.64
2023-08-15T18:40:01.493Z,59.27
2023-08-15T18:42:28.423Z,58.35
2023-08-15T18:44:54.815Z,58.06
2023-08-15T18:47:21.353Z,58.64
2023-08-15T18:49:47.904Z,58.32
2023-08-15T18:52:14.897Z,59.30
2023-08-15T18:54:41.408Z,58.10
2023-08-15T18:57:07.887Z,58.90
2023-08-15T18:59:34.586Z,57.87
2023-08-15T19:02:00.997Z,58.86
2023-08-15T19:04:27.458Z,59.00
2023-08-15T19:06:53.811Z,58.37
2023-08-15T19:09:22.130Z,58.21
2023-08-15T19:11:48.514Z,59.03
2023-08-15T19:14:15.217Z,59.24
2023-08-15T19:16:41.843Z,60.00
2023-08-15T19:19:08.228Z,60.26
2023-08-15T19:21:37.552Z,60.13
2023-08-15T19:24:04.243Z,59.33
2023-08-15T19:26:30.680Z,60.51
2023-08-15T19:28:57.162Z,60.88
2023-08-15T19:31:23.594Z,60.26
2023-08-15T19:33:50.097Z,60.64
2023-08-15T19:36:16.878Z,60.68
2023-08-15T19:38:43.747Z,60.64
2023-08-15T19:41:12.170Z,60.87
2023-08-15T19:43:39.014Z,62.25
2023-08-15T19:46:05.433Z,61.53
2023-08-15T19:48:33.082Z,61.94
2023-08-15T19:50:59.731Z,61.25
2023-08-15T19:53:26.400Z,61.81
2023-08-15T19:55:52.817Z,61.69
2023-08-15T19:58:19.193Z,63.89
2023-08-15T20:00:45.581Z,62.46
2023-08-15T20:03:12.097Z,63.53
2023-08-15T20:05:38.543Z,63.28
2023-08-15T20:08:06.190Z,63.68
2023-08-15T20:10:32.648Z,64.21
2023-08-15T20:12:59.035Z,64.27
2023-08-15T20:15:25.474Z,63.02
2023-08-15T20:17:51.957Z,64.89
2023-08-15T20:20:18.457Z,63.95
2023-08-15T20:22:44.823Z,65.89
2023-08-15T20:25:11.195Z,64.39
2023-08-15T20:27:37.568Z,65.93
2023-08-15T20:30:06.156Z,64.84
2023-08-15T20:32:32.683Z,65.21
2023-08-15T20:34:59.129Z,65.24
2023-08-15T20:37:27.611Z,65.24
2023-08-15T20:39:54.061Z,65.46
2023-08-15T20:42:20.532Z,64.96
2023-08-15T20:44:47.109Z,65.49
2023-08-15T20:47:13.612Z,66.02
2023-08-15T20:49:42.099Z,65.95
2023-08-15T20:52:08.570Z,66.04
2023-08-15T20:54:35.016Z,65.06
2023-08-15T20:57:01.744Z,67.10
2023-08-15T20:59:28.130Z,65.21
2023-08-15T21:01:54.583Z,65.21
2023-08-15T21:04:21.060Z,64.84
2023-08-15T21:06:47.487Z,67.48
2023-08-15T21:09:13.894Z,66.96
2023-08-15T21:11:40.264Z,67.04
2023-08-15T21:14:06.619Z,66.71
2023-08-15T21:16:33.123Z,68.12
2023-08-15T21:18:59.563Z,66.82
2023-08-15T21:21:26.056Z,66.78
2023-08-15T21:23:52.522Z,66.23
2023-08-15T21:26:18.877Z,66.68
2023-08-15T21:28:45.213Z,66.28
2023-08-15T21:31:11.645Z,67.03
2023-08-15T21:33:38.562Z,67.35
2023-08-15T21:36:05.056Z,67.92
2023-08-15T21:40:57.812Z,68.87
2023-08-15T21:43:24.170Z,69.53
2023-08-15T21:45:50.670Z,68.98
2023-08-15T21:48:17.297Z,69.94
2023-08-15T21:50:43.739Z,69.32
2023-08-15T21:53:10.221Z,70.70
2023-08-15T21:55:36.584Z,71.14
2023-08-15T21:58:02.977Z,70.66
2023-08-15T22:00:29.368Z,69.39
2023-08-15T22:02:57.921Z,68.92
2023-08-15T22:05:25.750Z,70.64
2023-08-15T22:07:52.471Z,68.81
2023-08-15T22:10:19.597Z,68.79
2023-08-15T22:12:45.970Z,69.04
2023-08-15T22:15:12.645Z,68.78
2023-08-15T22:17:46.141Z,69.22
2023-08-15T22:20:14.454Z,68.99
2023-08-15T22:22:41.246Z,69.63
2023-08-15T22:25:07.838Z,69.38
2023-08-15T22:27:35.679Z,70.07
2023-08-15T22:30:33.462Z,70.26
2023-08-15T22:33:00.347Z,71.19
2023-08-15T22:35:39.708Z,70.54
2023-08-15T22:38:08.398Z,69.70
2023-08-15T22:40:34.956Z,70.65
2023-08-15T22:43:01.348Z,69.62
2023-08-15T22:45:27.930Z,70.08
2023-08-15T22:47:54.375Z,70.19
2023-08-15T22:50:20.749Z,70.20
2023-08-15T22:52:47.570Z,70.83
2023-08-15T22:55:14.006Z,73.65
2023-08-15T22:57:40.505Z,72.55
2023-08-15T23:00:07.153Z,73.08
2023-08-15T23:02:33.548Z,72.79
2023-08-15T23:05:01.322Z,73.14
2023-08-15T23:07:29.343Z,72.42
2023-08-15T23:09:55.746Z,72.44
2023-08-15T23:12:22.112Z,73.68
2023-08-15T23:14:48.508Z,72.25
2023-08-15T23:17:14.918Z,72.29
2023-08-15T23:19:41.282Z,71.67
2023-08-15T23:22:08.140Z,73.24
2023-08-15T23:24:34.517Z,72.61
2023-08-15T23:27:02.240Z,73.31
2023-08-15T23:29:28.794Z,72.58
2023-08-15T23:31:56.811Z,71.99
2023-08-15T23:34:23.184Z,72.91
2023-08-15T23:36:49.585Z,72.97
2023-08-15T23:39:18.187Z,72.41
2023-08-15T23:41:44.578Z,71.18
2023-08-15T23:44:11.003Z,72.07
2023-08-15T23:46:38.765Z,71.91
2023-08-15T23:49:05.229Z,70.78
2023-08-15T23:51:32.517Z,71.73
2023-08-15T23:53:58.906Z,72.12
2023-08-15T23:56:25.513Z,71.23
2023-08-15T23:58:51.914Z,72.41
